Time;durP1;ratioP1;P1;durP2;ratioP2;P2;SDS_P1;SDS_P2;PMS_P1;PMS_P2;Temp;Humidity;BMP_temperature;BMP_pressure;BME280_temperature;BME280_humidity;BME280_pressure;Samples;Min_cycle;Max_cycle;Signal;HPM_P1;HPM_P2
2021/11/26 00:01:35;;;;;;;14.75;2.60;;;;;;;;;;5124584;28;20039;-67
2021/11/26 00:04:01;;;;;;;11.30;2.08;;;;;;;;;;5118763;28;20040;-67
2021/11/26 00:06:31;;;;;;;11.63;3.22;;;;;;;;;;5113900;28;20445;-67
2021/11/26 00:08:57;;;;;;;10.18;2.33;;;;;;;;;;5110929;28;20547;-68
2021/11/26 00:11:24;;;;;;;10.75;2.63;;;;;;;;;;5104866;28;20042;-67
2021/11/26 00:14:01;;;;;;;10.55;2.97;;;;;;;;;;5090634;28;20071;-67
2021/11/26 00:16:33;;;;;;;11.88;2.72;;;;;;;;;;5105300;28;20047;-68
2021/11/26 00:19:04;;;;;;;9.05;2.65;;;;;;;;;;5124274;28;20052;-67
2021/11/26 00:21:30;;;;;;;10.60;2.80;;;;;;;;;;5124304;28;20079;-68
2021/11/26 00:23:56;;;;;;;13.15;3.13;;;;;;;;;;5123737;28;20071;-68
2021/11/26 00:26:23;;;;;;;7.32;2.83;;;;;;;;;;5120479;28;20075;-68
2021/11/26 00:28:49;;;;;;;10.80;3.63;;;;;;;;;;5101902;28;20048;-69
2021/11/26 00:31:16;;;;;;;8.48;2.85;;;;;;;;;;5124258;28;20071;-67
2021/11/26 00:33:42;;;;;;;8.52;2.35;;;;;;;;;;5123945;28;20058;-68
2021/11/26 00:36:08;;;;;;;13.38;2.85;;;;;;;;;;5124158;28;20083;-68
2021/11/26 00:38:34;;;;;;;12.65;2.97;;;;;;;;;;5123938;28;20103;-67
2021/11/26 00:41:00;;;;;;;11.48;3.75;;;;;;;;;;5123425;28;20499;-67
2021/11/26 00:43:26;;;;;;;12.93;3.35;;;;;;;;;;5113030;28;20127;-67
2021/11/26 00:45:53;;;;;;;17.27;3.80;;;;;;;;;;5101674;28;20079;-67
2021/11/26 00:48:19;;;;;;;11.05;3.00;;;;;;;;;;5106351;28;20044;-68
2021/11/26 00:50:45;;;;;;;12.07;3.30;;;;;;;;;;5105492;28;20123;-67
2021/11/26 00:53:11;;;;;;;15.18;3.97;;;;;;;;;;5105431;28;20051;-67
2021/11/26 00:55:37;;;;;;;17.40;3.13;;;;;;;;;;5120912;28;20434;-67
2021/11/26 00:58:03;;;;;;;14.85;2.85;;;;;;;;;;5100641;28;20171;-67
2021/11/26 01:00:31;;;;;;;6.20;2.53;;;;;;;;;;5123656;28;20550;-66
2021/11/26 01:02:57;;;;;;;7.40;3.40;;;;;;;;;;5105325;28;20044;-67
2021/11/26 01:05:23;;;;;;;22.95;2.78;;;;;;;;;;5109570;28;20131;-67
2021/11/26 01:07:50;;;;;;;10.73;2.75;;;;;;;;;;5124226;28;20071;-67
2021/11/26 01:10:20;;;;;;;9.65;3.20;;;;;;;;;;5120561;28;20044;-68
2021/11/26 01:12:46;;;;;;;11.05;2.88;;;;;;;;;;5098631;28;20115;-67
2021/11/26 01:15:14;;;;;;;13.80;3.53;;;;;;;;;;5104916;28;20063;-67
2021/11/26 01:17:41;;;;;;;13.45;3.25;;;;;;;;;;5128243;28;20098;-66
2021/11/26 01:20:09;;;;;;;4.78;2.30;;;;;;;;;;5108923;28;20083;-66
2021/11/26 01:22:35;;;;;;;8.15;2.33;;;;;;;;;;5127051;28;20050;-66
2021/11/26 01:25:01;;;;;;;11.45;2.85;;;;;;;;;;5106144;28;20128;-66
2021/11/26 01:27:27;;;;;;;10.07;2.80;;;;;;;;;;5118284;28;20135;-66
2021/11/26 01:29:53;;;;;;;17.70;3.95;;;;;;;;;;5127263;28;20032;-66
2021/11/26 01:32:20;;;;;;;7.10;3.17;;;;;;;;;;5114763;28;20039;-67
2021/11/26 01:34:46;;;;;;;10.02;2.88;;;;;;;;;;5127300;28;20039;-67
2021/11/26 01:37:12;;;;;;;8.07;2.10;;;;;;;;;;5108917;28;20127;-67
2021/11/26 01:39:38;;;;;;;8.80;2.38;;;;;;;;;;5124857;28;20095;-67
2021/11/26 01:42:04;;;;;;;13.45;3.15;;;;;;;;;;5120029;28;20134;-67
2021/11/26 01:44:30;;;;;;;10.90;3.28;;;;;;;;;;5127182;28;20132;-67
2021/11/26 01:46:57;;;;;;;8.40;2.47;;;;;;;;;;5126352;28;20118;-66
2021/11/26 01:49:23;;;;;;;8.27;2.60;;;;;;;;;;5124298;28;20043;-66
2021/11/26 01:51:49;;;;;;;10.10;2.55;;;;;;;;;;5108064;28;20047;-67
2021/11/26 01:54:15;;;;;;;8.30;2.00;;;;;;;;;;5119996;28;20061;-67
2021/11/26 01:56:41;;;;;;;7.38;1.80;;;;;;;;;;5126220;28;20040;-66
2021/11/26 01:59:07;;;;;;;4.63;1.42;;;;;;;;;;5126707;28;20044;-66
2021/11/26 02:01:34;;;;;;;14.05;1.77;;;;;;;;;;5114631;28;20039;-66
2021/11/26 02:04:00;;;;;;;13.45;2.00;;;;;;;;;;5108799;28;20048;-66
2021/11/26 02:06:26;;;;;;;13.27;2.55;;;;;;;;;;5108448;28;20111;-67
2021/11/26 02:08:52;;;;;;;4.60;1.55;;;;;;;;;;5108431;28;20134;-67
2021/11/26 02:11:18;;;;;;;8.57;1.65;;;;;;;;;;5125492;28;20487;-66
2021/11/26 02:13:45;;;;;;;7.13;2.17;;;;;;;;;;5090824;28;20111;-67
2021/11/26 02:16:11;;;;;;;7.88;1.42;;;;;;;;;;5116746;28;20055;-66
2021/11/26 02:18:37;;;;;;;9.75;2.65;;;;;;;;;;5119039;28;20055;-66
2021/11/26 02:21:04;;;;;;;7.35;1.60;;;;;;;;;;5107691;28;20188;-66
2021/11/26 02:23:30;;;;;;;11.98;1.90;;;;;;;;;;5106890;28;20055;-66
2021/11/26 02:25:56;;;;;;;6.50;1.70;;;;;;;;;;5121627;28;20107;-66
2021/11/26 02:31:45;;;;;;;4.97;1.40;;;;;;;;;;5118413;28;20045;-66
2021/11/26 02:34:12;;;;;;;4.88;1.95;;;;;;;;;;5126399;28;20051;-66
2021/11/26 02:36:39;;;;;;;14.43;2.47;;;;;;;;;;5107380;28;20071;-66
2021/11/26 02:39:09;;;;;;;8.65;2.17;;;;;;;;;;5126213;28;20051;-67
2021/11/26 02:41:39;;;;;;;6.03;2.45;;;;;;;;;;5125069;28;20069;-67
2021/11/26 02:44:06;;;;;;;7.72;2.15;;;;;;;;;;5124442;28;20122;-67
2021/11/26 02:46:32;;;;;;;6.57;2.00;;;;;;;;;;5114025;28;20151;-67
2021/11/26 02:48:58;;;;;;;7.43;1.85;;;;;;;;;;5126184;28;20507;-67
2021/11/26 02:51:25;;;;;;;11.20;1.90;;;;;;;;;;5104381;28;20099;-66
2021/11/26 02:53:51;;;;;;;4.95;1.35;;;;;;;;;;5126128;28;20054;-67
2021/11/26 02:56:17;;;;;;;8.20;1.73;;;;;;;;;;5113817;28;20046;-66
2021/11/26 02:58:43;;;;;;;7.18;2.15;;;;;;;;;;5106896;28;20049;-66
2021/11/26 03:01:09;;;;;;;6.70;1.60;;;;;;;;;;5107374;28;20122;-66
2021/11/26 03:03:36;;;;;;;6.10;1.27;;;;;;;;;;5107402;28;20111;-66
2021/11/26 03:06:03;;;;;;;4.72;1.33;;;;;;;;;;5107151;28;20130;-66
2021/11/26 03:08:29;;;;;;;6.15;1.70;;;;;;;;;;5107715;28;20075;-66
2021/11/26 03:10:56;;;;;;;6.03;1.77;;;;;;;;;;5106754;28;20054;-66
2021/11/26 03:13:23;;;;;;;11.30;1.77;;;;;;;;;;5124628;28;20059;-66
2021/11/26 03:15:49;;;;;;;3.92;1.15;;;;;;;;;;5125181;28;20119;-66
2021/11/26 03:18:18;;;;;;;6.45;1.25;;;;;;;;;;5125385;28;20053;-65
2021/11/26 03:20:44;;;;;;;5.57;1.27;;;;;;;;;;5124783;28;20566;-66
2021/11/26 03:23:11;;;;;;;3.75;1.13;;;;;;;;;;5107074;28;20131;-66
2021/11/26 03:25:37;;;;;;;5.50;2.08;;;;;;;;;;5124835;28;20069;-66
2021/11/26 03:28:03;;;;;;;7.35;1.48;;;;;;;;;;5105887;28;20055;-66
2021/11/26 03:30:30;;;;;;;5.72;1.50;;;;;;;;;;5105711;28;20131;-66
2021/11/26 03:32:56;;;;;;;5.53;1.23;;;;;;;;;;5122843;28;20108;-66
2021/11/26 03:35:23;;;;;;;9.13;1.42;;;;;;;;;;5106385;28;20073;-66
2021/11/26 03:37:49;;;;;;;7.22;2.35;;;;;;;;;;5092779;28;20099;-66
2021/11/26 03:40:17;;;;;;;8.07;2.25;;;;;;;;;;5124470;28;20430;-66
2021/11/26 03:42:43;;;;;;;9.07;2.58;;;;;;;;;;5114506;28;20063;-66
2021/11/26 03:45:10;;;;;;;8.80;1.75;;;;;;;;;;5121107;28;20040;-66
2021/11/26 03:47:36;;;;;;;8.73;1.63;;;;;;;;;;5124953;28;20486;-66
2021/11/26 03:50:04;;;;;;;6.80;1.55;;;;;;;;;;5106783;28;20047;-66
2021/11/26 03:52:30;;;;;;;5.53;1.23;;;;;;;;;;5092263;28;20047;-67
2021/11/26 03:54:56;;;;;;;6.75;1.40;;;;;;;;;;5104173;28;20052;-66
2021/11/26 03:57:22;;;;;;;8.23;1.67;;;;;;;;;;5112550;28;20411;-66
2021/11/26 03:59:48;;;;;;;8.85;1.25;;;;;;;;;;5124539;28;20047;-66
2021/11/26 04:02:15;;;;;;;6.28;1.48;;;;;;;;;;5102653;28;20050;-66
2021/11/26 04:04:41;;;;;;;11.45;1.60;;;;;;;;;;5116929;28;20050;-66
2021/11/26 04:07:07;;;;;;;6.78;1.80;;;;;;;;;;5120060;28;20047;-66
2021/11/26 04:09:33;;;;;;;6.32;1.50;;;;;;;;;;5122693;28;20044;-67
2021/11/26 04:11:59;;;;;;;10.32;1.85;;;;;;;;;;5120348;28;20607;-66
2021/11/26 04:14:25;;;;;;;7.03;1.67;;;;;;;;;;5124793;28;20100;-66
2021/11/26 04:16:52;;;;;;;6.53;1.30;;;;;;;;;;5101813;28;20075;-66
2021/11/26 04:19:18;;;;;;;11.20;2.55;;;;;;;;;;5123825;28;20043;-67
2021/11/26 04:21:44;;;;;;;6.47;1.65;;;;;;;;;;5123834;28;20108;-67
2021/11/26 04:24:10;;;;;;;2.85;1.08;;;;;;;;;;5120452;28;20091;-66
2021/11/26 04:26:37;;;;;;;7.90;1.73;;;;;;;;;;5113113;28;20071;-66
2021/11/26 04:29:03;;;;;;;9.93;1.70;;;;;;;;;;5101738;28;20122;-67
2021/11/26 04:31:29;;;;;;;8.30;1.70;;;;;;;;;;5124337;28;20051;-67
2021/11/26 04:33:55;;;;;;;4.28;1.48;;;;;;;;;;5124310;28;20040;-67
2021/11/26 04:36:23;;;;;;;10.18;1.63;;;;;;;;;;5124312;28;20043;-66
2021/11/26 04:38:49;;;;;;;7.63;1.70;;;;;;;;;;5105985;28;20066;-67
2021/11/26 04:41:15;;;;;;;9.93;2.10;;;;;;;;;;5123843;28;20614;-66
2021/11/26 04:43:41;;;;;;;13.00;2.17;;;;;;;;;;5114200;28;20104;-66
2021/11/26 04:46:07;;;;;;;10.13;1.63;;;;;;;;;;5123769;28;20114;-66
2021/11/26 04:48:34;;;;;;;8.25;2.13;;;;;;;;;;5128414;28;20075;-67
2021/11/26 04:51:00;;;;;;;6.53;1.77;;;;;;;;;;5128144;28;20040;-67
2021/11/26 04:53:26;;;;;;;6.00;1.70;;;;;;;;;;5117494;28;20044;-67
2021/11/26 04:55:52;;;;;;;7.80;1.83;;;;;;;;;;5115160;28;20062;-67
2021/11/26 04:58:18;;;;;;;7.60;1.83;;;;;;;;;;5096025;28;20065;-67
2021/11/26 05:00:44;;;;;;;5.57;1.70;;;;;;;;;;5119667;28;20093;-66
2021/11/26 05:03:12;;;;;;;6.05;1.60;;;;;;;;;;5108788;28;20040;-67
2021/11/26 05:05:38;;;;;;;6.68;1.83;;;;;;;;;;5126699;28;20122;-66
2021/11/26 05:08:05;;;;;;;6.15;1.50;;;;;;;;;;5127123;28;20040;-66
2021/11/26 05:10:32;;;;;;;6.25;2.60;;;;;;;;;;5126686;28;20071;-66
2021/11/26 05:12:59;;;;;;;10.05;1.50;;;;;;;;;;5127804;28;20101;-66
2021/11/26 05:15:26;;;;;;;8.10;1.65;;;;;;;;;;5105749;28;20044;-66
2021/11/26 05:18:00;;;;;;;8.45;1.35;;;;;;;;;;5119196;28;20088;-66
2021/11/26 05:20:27;;;;;;;5.90;1.33;;;;;;;;;;5126656;28;20048;-66
2021/11/26 05:22:53;;;;;;;11.73;2.20;;;;;;;;;;5109865;28;20051;-66
2021/11/26 05:25:20;;;;;;;6.53;1.67;;;;;;;;;;5127084;28;20051;-66
2021/11/26 05:27:46;;;;;;;7.35;1.88;;;;;;;;;;5122764;28;20060;-66
2021/11/26 05:30:12;;;;;;;7.05;1.02;;;;;;;;;;5127212;28;20104;-66
2021/11/26 05:32:39;;;;;;;5.75;1.42;;;;;;;;;;5127020;28;20040;-66
2021/11/26 05:35:06;;;;;;;4.18;1.25;;;;;;;;;;5112093;28;20048;-66
2021/11/26 05:37:32;;;;;;;10.43;1.52;;;;;;;;;;5121515;28;20036;-66
2021/11/26 05:39:58;;;;;;;5.20;1.25;;;;;;;;;;5105256;28;20056;-66
2021/11/26 05:42:24;;;;;;;7.97;1.02;;;;;;;;;;5108163;28;20065;-67
2021/11/26 05:44:51;;;;;;;10.00;1.35;;;;;;;;;;5125659;28;20074;-66
2021/11/26 05:47:17;;;;;;;4.68;1.85;;;;;;;;;;5115235;28;20046;-66
2021/11/26 05:49:43;;;;;;;11.43;1.52;;;;;;;;;;5110853;28;20465;-66
2021/11/26 05:52:09;;;;;;;5.57;1.50;;;;;;;;;;5123477;28;20051;-67
2021/11/26 05:54:37;;;;;;;10.55;2.00;;;;;;;;;;5094797;28;20056;-67
2021/11/26 05:57:03;;;;;;;6.45;1.73;;;;;;;;;;5087598;28;20052;-67
2021/11/26 05:59:29;;;;;;;4.07;1.70;;;;;;;;;;5096480;28;20075;-66
2021/11/26 06:01:58;;;;;;;6.65;1.40;;;;;;;;;;5118478;28;20062;-67
2021/11/26 06:04:24;;;;;;;3.13;1.27;;;;;;;;;;5122313;28;20145;-67
2021/11/26 06:06:50;;;;;;;8.23;2.00;;;;;;;;;;5098701;28;20112;-67
2021/11/26 06:09:17;;;;;;;5.57;1.45;;;;;;;;;;5118621;28;20043;-67
2021/11/26 06:11:43;;;;;;;8.38;1.52;;;;;;;;;;5091960;28;20047;-67
2021/11/26 06:14:09;;;;;;;10.38;1.45;;;;;;;;;;5120599;28;20062;-68
2021/11/26 06:16:35;;;;;;;10.02;1.30;;;;;;;;;;5113738;28;20067;-68
2021/11/26 06:19:01;;;;;;;11.57;1.63;;;;;;;;;;5106733;28;20260;-68
2021/11/26 06:21:27;;;;;;;9.32;1.77;;;;;;;;;;5103756;28;20135;-68
2021/11/26 06:23:53;;;;;;;8.55;2.00;;;;;;;;;;5112131;28;20044;-68
2021/11/26 06:26:20;;;;;;;7.75;2.35;;;;;;;;;;5123066;28;20046;-68
2021/11/26 06:28:46;;;;;;;10.77;2.10;;;;;;;;;;5095226;28;20053;-67
2021/11/26 06:31:12;;;;;;;8.02;1.98;;;;;;;;;;5108119;28;20047;-67
2021/11/26 06:33:38;;;;;;;8.45;2.13;;;;;;;;;;5126109;28;20095;-67
2021/11/26 06:36:04;;;;;;;3.88;1.95;;;;;;;;;;5121761;28;20048;-67
2021/11/26 06:38:30;;;;;;;9.93;2.17;;;;;;;;;;5124628;28;20040;-67
2021/11/26 06:40:56;;;;;;;10.32;1.98;;;;;;;;;;5120144;28;20048;-67
2021/11/26 06:43:22;;;;;;;13.65;2.10;;;;;;;;;;5117236;28;20070;-67
2021/11/26 06:45:49;;;;;;;6.57;1.13;;;;;;;;;;5125883;28;20110;-67
2021/11/26 06:48:15;;;;;;;7.55;1.35;;;;;;;;;;5116906;28;20119;-67
2021/11/26 06:50:41;;;;;;;9.30;1.88;;;;;;;;;;5124430;28;20123;-67
2021/11/26 06:53:07;;;;;;;6.78;2.08;;;;;;;;;;5125861;28;20078;-67
2021/11/26 06:55:34;;;;;;;6.07;1.95;;;;;;;;;;5125308;28;20102;-67
2021/11/26 06:58:00;;;;;;;9.38;2.53;;;;;;;;;;5123625;28;20050;-67
2021/11/26 07:00:26;;;;;;;5.30;2.70;;;;;;;;;;5114342;28;20093;-67
2021/11/26 07:02:52;;;;;;;10.43;2.17;;;;;;;;;;5110916;28;20040;-67
2021/11/26 07:05:19;;;;;;;7.43;2.63;;;;;;;;;;5119369;28;20225;-67
2021/11/26 07:07:45;;;;;;;12.18;3.17;;;;;;;;;;5097654;28;20047;-66
2021/11/26 07:10:13;;;;;;;11.80;3.50;;;;;;;;;;5106449;28;20063;-66
2021/11/26 07:12:39;;;;;;;;;;;;;;;;;;5091753;28;20098;-67
2021/11/26 07:15:06;;;;;;;7.38;3.10;;;;;;;;;;5112794;28;19942;-67
2021/11/26 07:17:33;;;;;;;12.77;3.83;;;;;;;;;;5111065;28;20090;-66
2021/11/26 07:19:59;;;;;;;9.27;3.92;;;;;;;;;;5105042;28;20051;-66
2021/11/26 07:22:25;;;;;;;6.60;3.42;;;;;;;;;;5105306;28;20123;-67
2021/11/26 07:24:51;;;;;;;13.60;4.10;;;;;;;;;;5099395;28;20046;-67
2021/11/26 07:27:17;;;;;;;10.45;3.33;;;;;;;;;;5111820;28;20040;-67
2021/11/26 07:29:44;;;;;;;12.88;3.65;;;;;;;;;;5118164;28;20095;-67
2021/11/26 07:32:10;;;;;;;8.77;3.60;;;;;;;;;;5107761;28;20036;-67
2021/11/26 07:34:39;;;;;;;8.13;3.50;;;;;;;;;;5090702;28;20040;-67
2021/11/26 07:37:06;;;;;;;17.77;4.70;;;;;;;;;;5106419;28;20052;-67
2021/11/26 07:39:34;;;;;;;6.40;2.92;;;;;;;;;;5112722;28;20046;-67
2021/11/26 07:42:00;;;;;;;;;;;;;;;;;;5112027;28;20065;-67
2021/11/26 07:44:26;;;;;;;12.60;4.03;;;;;;;;;;5117666;28;19924;-67
2021/11/26 07:46:52;;;;;;;5.50;3.40;;;;;;;;;;5113891;28;20035;-67
2021/11/26 07:49:18;;;;;;;10.55;3.67;;;;;;;;;;5097620;28;20494;-67
2021/11/26 07:51:44;;;;;;;7.00;3.63;;;;;;;;;;5095869;28;20051;-66
2021/11/26 07:54:10;;;;;;;7.25;3.80;;;;;;;;;;5096275;28;20473;-68
2021/11/26 07:56:37;;;;;;;9.70;3.75;;;;;;;;;;5100468;28;20089;-66
2021/11/26 07:59:03;;;;;;;6.70;3.35;;;;;;;;;;5094731;28;20052;-67
2021/11/26 08:01:29;;;;;;;12.70;4.45;;;;;;;;;;5114744;28;20043;-68
2021/11/26 08:03:55;;;;;;;7.20;3.58;;;;;;;;;;5109614;28;20522;-66
2021/11/26 08:06:21;;;;;;;6.82;3.65;;;;;;;;;;5110098;28;20095;-67
2021/11/26 08:08:47;;;;;;;12.32;3.35;;;;;;;;;;5117260;28;20103;-66
2021/11/26 08:11:14;;;;;;;12.32;3.75;;;;;;;;;;5094567;28;20040;-66
2021/11/26 08:13:40;;;;;;;9.75;3.28;;;;;;;;;;5098276;28;20126;-66
2021/11/26 08:16:08;;;;;;;13.02;4.00;;;;;;;;;;5117591;28;20039;-66
2021/11/26 08:18:34;;;;;;;8.43;3.10;;;;;;;;;;5116853;28;20144;-66
2021/11/26 08:21:00;;;;;;;15.93;3.80;;;;;;;;;;5117306;28;20130;-66
2021/11/26 08:23:28;;;;;;;15.82;3.50;;;;;;;;;;5097384;28;20043;-66
2021/11/26 08:25:55;;;;;;;6.95;2.70;;;;;;;;;;5111642;28;20036;-66
2021/11/26 08:28:21;;;;;;;10.48;2.75;;;;;;;;;;5113319;28;20047;-66
2021/11/26 08:30:47;;;;;;;8.00;2.95;;;;;;;;;;5089814;28;20047;-66
2021/11/26 08:33:13;;;;;;;8.38;2.92;;;;;;;;;;5120087;28;20082;-66
2021/11/26 08:35:39;;;;;;;15.63;3.10;;;;;;;;;;5099015;28;20051;-66
2021/11/26 08:38:30;;;;;;;12.07;3.40;;;;;;;;;;5115729;28;20043;-66
2021/11/26 08:40:56;;;;;;;13.60;3.58;;;;;;;;;;5094386;28;20411;-66
2021/11/26 08:43:22;;;;;;;9.88;2.70;;;;;;;;;;5097729;28;20044;-64
2021/11/26 08:45:49;;;;;;;12.77;3.30;;;;;;;;;;5115811;28;20039;-63
2021/11/26 08:48:15;;;;;;;15.57;4.15;;;;;;;;;;5108983;28;20055;-66
2021/11/26 08:50:41;;;;;;;10.45;2.75;;;;;;;;;;5098691;28;20079;-66
2021/11/26 08:53:09;;;;;;;11.70;3.05;;;;;;;;;;5114261;28;20032;-66
2021/11/26 08:55:35;;;;;;;;;;;;;;;;;;5115296;28;20466;-67
2021/11/26 08:58:02;;;;;;;11.23;3.03;;;;;;;;;;5096933;28;19923;-67
2021/11/26 09:00:30;;;;;;;12.70;2.90;;;;;;;;;;5097406;28;20054;-66
2021/11/26 09:02:56;;;;;;;6.82;2.95;;;;;;;;;;5115848;28;20073;-66
2021/11/26 09:05:23;;;;;;;13.63;2.80;;;;;;;;;;5094054;28;20048;-66
2021/11/26 09:07:49;;;;;;;9.77;2.92;;;;;;;;;;5098796;28;20076;-66
2021/11/26 09:10:16;;;;;;;6.80;3.03;;;;;;;;;;5116651;28;20561;-66
2021/11/26 09:12:42;;;;;;;13.63;3.53;;;;;;;;;;5091444;28;20499;-65
2021/11/26 09:15:09;;;;;;;13.70;3.58;;;;;;;;;;5103711;28;20099;-65
2021/11/26 09:17:35;;;;;;;9.43;3.17;;;;;;;;;;5097622;28;20132;-66
2021/11/26 09:20:02;;;;;;;6.38;2.78;;;;;;;;;;5093674;28;20048;-65
2021/11/26 09:22:30;;;;;;;13.15;2.70;;;;;;;;;;5116511;28;20121;-66
2021/11/26 09:24:56;;;;;;;12.65;3.53;;;;;;;;;;5113869;28;20050;-66
2021/11/26 09:27:22;;;;;;;9.35;2.63;;;;;;;;;;5115373;28;20056;-66
2021/11/26 09:29:48;;;;;;;5.30;2.40;;;;;;;;;;5117378;28;20068;-66
2021/11/26 09:32:15;;;;;;;10.70;2.90;;;;;;;;;;5118756;28;20043;-66
2021/11/26 09:34:41;;;;;;;12.43;3.28;;;;;;;;;;5103187;28;20095;-66
2021/11/26 09:37:07;;;;;;;10.15;3.03;;;;;;;;;;5102492;28;20050;-65
2021/11/26 09:39:33;;;;;;;13.02;2.63;;;;;;;;;;5099392;28;20044;-65
2021/11/26 09:42:00;;;;;;;6.63;1.92;;;;;;;;;;5116164;28;20043;-66
2021/11/26 09:44:26;;;;;;;5.90;2.20;;;;;;;;;;5125820;28;20095;-65
2021/11/26 09:46:57;;;;;;;8.23;2.13;;;;;;;;;;5094839;28;20496;-65
2021/11/26 09:49:23;;;;;;;16.95;3.05;;;;;;;;;;5099494;28;20495;-65
2021/11/26 09:51:50;;;;;;;13.70;3.13;;;;;;;;;;5120317;28;20143;-66
2021/11/26 09:54:16;;;;;;;5.85;2.50;;;;;;;;;;5119174;28;20063;-65
2021/11/26 09:56:43;;;;;;;10.55;3.35;;;;;;;;;;5112245;28;20518;-65
2021/11/26 09:59:09;;;;;;;9.90;2.38;;;;;;;;;;5115847;28;20039;-65
2021/11/26 10:01:35;;;;;;;9.80;2.30;;;;;;;;;;5095212;28;20469;-66
2021/11/26 10:04:01;;;;;;;7.68;2.80;;;;;;;;;;5117428;28;20044;-66
2021/11/26 10:06:37;;;;;;;9.88;2.90;;;;;;;;;;5122014;28;20553;-65
2021/11/26 10:09:07;;;;;;;12.70;3.28;;;;;;;;;;5097600;28;20043;-65
2021/11/26 10:11:37;;;;;;;7.95;2.72;;;;;;;;;;5118364;28;20047;-66
2021/11/26 10:14:12;;;;;;;9.73;3.40;;;;;;;;;;5101461;28;20043;-65
2021/11/26 10:16:45;;;;;;;13.23;3.40;;;;;;;;;;5121621;28;20453;-65
2021/11/26 10:19:11;;;;;;;11.20;2.65;;;;;;;;;;5113130;28;20107;-65
2021/11/26 10:21:37;;;;;;;13.15;2.83;;;;;;;;;;5116355;28;20062;-64
2021/11/26 10:24:03;;;;;;;14.05;3.70;;;;;;;;;;5100708;28;20052;-65
2021/11/26 10:26:30;;;;;;;14.45;3.85;;;;;;;;;;5112415;28;20044;-65
2021/11/26 10:29:02;;;;;;;8.38;2.90;;;;;;;;;;5117452;28;20145;-65
2021/11/26 10:31:35;;;;;;;7.25;2.30;;;;;;;;;;5109976;28;20087;-65
2021/11/26 10:34:04;;;;;;;11.30;2.50;;;;;;;;;;5097147;28;20040;-64
2021/11/26 10:36:41;;;;;;;19.05;3.30;;;;;;;;;;5117955;28;20044;-65
2021/11/26 10:39:16;;;;;;;10.57;3.83;;;;;;;;;;5097022;28;20044;-64
2021/11/26 10:41:43;;;;;;;6.45;2.40;;;;;;;;;;5103046;28;20337;-65
2021/11/26 10:44:11;;;;;;;8.70;3.08;;;;;;;;;;5119519;28;20040;-65
2021/11/26 10:57:37;;;;;;;7.20;2.08;;;;;;;;;;5094668;28;20055;-64
2021/11/26 11:00:04;;;;;;;14.88;2.53;;;;;;;;;;5110856;28;20039;-64
2021/11/26 11:02:31;;;;;;;15.80;3.40;;;;;;;;;;5120465;28;20134;-65
2021/11/26 11:04:58;;;;;;;8.55;2.78;;;;;;;;;;5101968;28;20061;-64
2021/11/26 11:07:24;;;;;;;18.30;2.80;;;;;;;;;;5113315;28;20032;-64
2021/11/26 11:09:54;;;;;;;20.98;3.55;;;;;;;;;;5114515;28;20083;-64
2021/11/26 11:12:29;;;;;;;11.13;2.40;;;;;;;;;;5108071;28;20055;-65
2021/11/26 11:14:56;;;;;;;14.38;3.13;;;;;;;;;;5118192;28;20431;-64
2021/11/26 11:17:28;;;;;;;11.35;2.85;;;;;;;;;;5112638;28;20036;-63
2021/11/26 11:20:04;;;;;;;14.90;3.47;;;;;;;;;;5118832;28;20043;-63
2021/11/26 11:22:30;;;;;;;12.18;3.13;;;;;;;;;;5115765;28;20047;-64
2021/11/26 11:24:57;;;;;;;10.80;2.85;;;;;;;;;;5122310;28;20040;-64
2021/11/26 11:27:23;;;;;;;7.13;2.53;;;;;;;;;;5096653;28;20040;-64
2021/11/26 11:29:49;;;;;;;10.25;3.00;;;;;;;;;;5119907;28;20628;-64
2021/11/26 11:32:15;;;;;;;10.32;2.63;;;;;;;;;;5115982;28;20095;-64
2021/11/26 11:34:42;;;;;;;13.95;3.78;;;;;;;;;;5116990;28;20059;-64
2021/11/26 11:37:10;;;;;;;17.42;3.67;;;;;;;;;;5103199;28;20046;-64
2021/11/26 11:39:46;;;;;;;8.02;3.22;;;;;;;;;;5100510;28;20055;-64
2021/11/26 11:42:13;;;;;;;11.48;3.38;;;;;;;;;;5100459;28;20054;-64
2021/11/26 11:44:40;;;;;;;15.10;3.80;;;;;;;;;;5110908;28;20040;-64
2021/11/26 11:47:17;;;;;;;6.82;3.28;;;;;;;;;;5100143;28;20503;-64
2021/11/26 11:49:43;;;;;;;12.63;3.88;;;;;;;;;;5110328;28;20495;-64
2021/11/26 11:52:11;;;;;;;10.63;3.60;;;;;;;;;;5113712;28;20054;-64
2021/11/26 11:54:38;;;;;;;6.68;2.90;;;;;;;;;;5094797;28;20047;-63
2021/11/26 11:57:05;;;;;;;9.18;2.85;;;;;;;;;;5113467;28;20111;-63
2021/11/26 11:59:33;;;;;;;7.10;2.70;;;;;;;;;;5117333;28;20063;-64
2021/11/26 12:02:00;;;;;;;7.20;2.90;;;;;;;;;;5097756;28;20056;-64
2021/11/26 12:04:34;;;;;;;10.90;2.83;;;;;;;;;;5109866;28;20069;-64
2021/11/26 12:07:01;;;;;;;9.50;2.95;;;;;;;;;;5115845;28;20054;-64
2021/11/26 12:09:29;;;;;;;8.18;3.88;;;;;;;;;;5113969;28;20133;-64
2021/11/26 12:12:12;;;;;;;6.80;3.10;;;;;;;;;;5116138;28;20048;-64
2021/11/26 12:14:48;;;;;;;17.00;3.38;;;;;;;;;;5112893;28;20053;-63
2021/11/26 12:17:24;;;;;;;16.70;3.47;;;;;;;;;;5110975;28;20058;-64
2021/11/26 12:19:58;;;;;;;14.38;4.55;;;;;;;;;;5116655;28;20069;-64
2021/11/26 12:22:31;;;;;;;11.32;3.88;;;;;;;;;;5117265;28;20043;-64
2021/11/26 12:24:58;;;;;;;16.75;4.70;;;;;;;;;;5114911;28;20076;-64
2021/11/26 12:27:37;;;;;;;12.65;4.35;;;;;;;;;;5116615;28;20079;-64
2021/11/26 12:30:04;;;;;;;16.98;5.07;;;;;;;;;;5081192;28;20039;-64
2021/11/26 12:32:31;;;;;;;16.92;4.88;;;;;;;;;;5118623;28;20050;-63
2021/11/26 12:35:03;;;;;;;18.38;5.10;;;;;;;;;;5116962;28;20055;-64
2021/11/26 12:37:33;;;;;;;23.50;5.25;;;;;;;;;;5122049;28;20063;-63
2021/11/26 12:40:03;;;;;;;13.40;4.85;;;;;;;;;;5119663;28;20099;-63
2021/11/26 12:42:29;;;;;;;10.32;4.63;;;;;;;;;;5114415;28;20084;-64
2021/11/26 12:44:58;;;;;;;17.10;5.28;;;;;;;;;;5114809;28;20044;-64
2021/11/26 12:47:34;;;;;;;21.95;6.22;;;;;;;;;;5107151;28;20074;-63
2021/11/26 12:52:32;;;;;;;7.97;4.50;;;;;;;;;;5114826;28;20461;-63
2021/11/26 12:54:58;;;;;;;15.65;5.45;;;;;;;;;;5114529;28;20069;-64
2021/11/26 12:57:32;;;;;;;15.18;5.70;;;;;;;;;;5115574;28;20080;-63
2021/11/26 13:00:01;;;;;;;10.35;4.28;;;;;;;;;;5112056;28;20044;-63
2021/11/26 13:02:33;;;;;;;15.80;6.18;;;;;;;;;;5093775;28;20052;-63
2021/11/26 13:05:00;;;;;;;12.90;4.85;;;;;;;;;;5094923;28;20111;-63
2021/11/26 13:07:27;;;;;;;13.15;4.70;;;;;;;;;;5122690;28;20044;-63
2021/11/26 13:09:55;;;;;;;11.50;4.60;;;;;;;;;;5111560;28;20040;-63
2021/11/26 13:12:22;;;;;;;17.58;5.10;;;;;;;;;;5114676;28;20047;-63
2021/11/26 13:14:50;;;;;;;18.88;5.43;;;;;;;;;;5110483;28;20032;-63
2021/11/26 13:17:17;;;;;;;12.80;4.18;;;;;;;;;;5120052;28;20046;-63
2021/11/26 13:19:43;;;;;;;15.50;5.03;;;;;;;;;;5122035;28;20468;-63
2021/11/26 13:22:09;;;;;;;12.27;4.63;;;;;;;;;;5118716;28;20044;-63
2021/11/26 13:24:37;;;;;;;13.60;4.35;;;;;;;;;;5097871;28;20058;-64
2021/11/26 13:27:04;;;;;;;8.68;4.15;;;;;;;;;;5119025;28;20040;-64
2021/11/26 13:29:30;;;;;;;10.70;4.32;;;;;;;;;;5095325;28;20071;-64
2021/11/26 13:31:58;;;;;;;14.57;4.25;;;;;;;;;;5117307;28;20044;-63
2021/11/26 13:34:24;;;;;;;10.57;4.40;;;;;;;;;;5119542;28;20043;-63
2021/11/26 13:36:50;;;;;;;11.48;4.35;;;;;;;;;;5098710;28;20072;-63
2021/11/26 13:39:20;;;;;;;10.30;4.25;;;;;;;;;;5115387;28;20122;-64
2021/11/26 13:41:52;;;;;;;11.25;4.22;;;;;;;;;;5114650;28;20075;-64
2021/11/26 13:44:24;;;;;;;16.10;4.45;;;;;;;;;;5118022;28;20031;-64
2021/11/26 13:47:01;;;;;;;16.55;4.32;;;;;;;;;;5110468;28;20065;-64
2021/11/26 13:49:27;;;;;;;11.07;3.80;;;;;;;;;;5118816;28;20073;-63
2021/11/26 13:51:57;;;;;;;13.82;4.03;;;;;;;;;;5117167;28;20074;-63
2021/11/26 13:54:28;;;;;;;8.07;3.70;;;;;;;;;;5125103;28;20089;-63
2021/11/26 13:56:54;;;;;;;11.70;4.55;;;;;;;;;;5107012;28;20078;-63
2021/11/26 13:59:22;;;;;;;8.48;3.42;;;;;;;;;;5089278;28;20055;-63
2021/11/26 14:01:49;;;;;;;10.02;4.00;;;;;;;;;;5113286;28;20508;-63
2021/11/26 14:04:17;;;;;;;14.48;4.28;;;;;;;;;;5103119;28;20057;-63
2021/11/26 14:06:43;;;;;;;;;;;;;;;;;;5115709;28;20050;-63
2021/11/26 14:09:10;;;;;;;12.90;3.50;;;;;;;;;;5112904;28;19931;-63
2021/11/26 14:11:47;;;;;;;12.80;3.80;;;;;;;;;;5118440;28;20036;-63
2021/11/26 14:14:23;;;;;;;8.18;3.50;;;;;;;;;;5113513;28;20039;-62
2021/11/26 14:16:57;;;;;;;8.80;3.80;;;;;;;;;;5098709;28;20413;-63
2021/11/26 14:19:27;;;;;;;12.02;3.67;;;;;;;;;;5099127;28;20122;-63
2021/11/26 14:21:54;;;;;;;12.60;4.68;;;;;;;;;;5102385;28;20514;-63
2021/11/26 14:24:20;;;;;;;11.85;3.70;;;;;;;;;;5117057;28;20040;-62
2021/11/26 14:26:54;;;;;;;11.18;4.00;;;;;;;;;;5115989;28;20044;-63
2021/11/26 14:29:20;;;;;;;11.40;3.53;;;;;;;;;;5100447;28;20063;-62
2021/11/26 14:31:46;;;;;;;10.77;4.22;;;;;;;;;;5114464;28;20040;-64
2021/11/26 14:34:13;;;;;;;10.07;3.55;;;;;;;;;;5111642;28;20115;-63
2021/11/26 14:36:40;;;;;;;13.77;5.38;;;;;;;;;;5117020;28;20060;-63
2021/11/26 14:39:07;;;;;;;10.02;4.43;;;;;;;;;;5118552;28;20453;-63
2021/11/26 14:41:36;;;;;;;10.50;4.35;;;;;;;;;;5110457;28;20047;-63
2021/11/26 14:44:07;;;;;;;15.70;6.35;;;;;;;;;;5098459;28;20051;-63
2021/11/26 14:46:33;;;;;;;13.73;5.35;;;;;;;;;;5110956;28;20048;-63
2021/11/26 14:49:00;;;;;;;11.30;5.60;;;;;;;;;;5112751;28;20040;-63
2021/11/26 14:51:28;;;;;;;12.77;4.90;;;;;;;;;;5111434;28;20044;-63
2021/11/26 14:53:54;;;;;;;;;;;;;;;;;;5117803;28;20074;-63
2021/11/26 14:56:22;;;;;;;9.75;4.35;;;;;;;;;;5118834;28;19935;-62